Time;durP1;ratioP1;P1;durP2;ratioP2;P2;SDS_P1;SDS_P2;PMS_P1;PMS_P2;Temp;Humidity;BMP_temperature;BMP_pressure;BME280_temperature;BME280_humidity;BME280_pressure;Samples;Min_cycle;Max_cycle;Signal;HPM_P1;HPM_P2
2022/04/18 00:02:23;;;;;;;;;;;;;;;5.43;67.27;94698.78;5135235;27;924;-49
2022/04/18 00:04:49;;;;;;;;;;;;;;;5.41;68.07;94695.44;5135156;27;1117;-49
2022/04/18 00:07:15;;;;;;;;;;;;;;;5.39;67.71;94701.88;5135088;27;1054;-49
2022/04/18 00:09:41;;;;;;;;;;;;;;;5.41;67.24;94697.25;5135174;27;976;-49
2022/04/18 00:12:08;;;;;;;;;;;;;;;5.43;66.84;94701.44;5134861;27;1194;-49
2022/04/18 00:14:34;;;;;;;;;;;;;;;5.43;66.99;94700.59;5134811;27;1027;-49
2022/04/18 00:17:00;;;;;;;;;;;;;;;5.36;67.26;94700.31;5135043;27;1062;-49
2022/04/18 00:19:26;;;;;;;;;;;;;;;5.36;66.83;94699.47;5134923;27;1990;-49
2022/04/18 00:21:52;;;;;;;;;;;;;;;5.33;67.04;94700.63;5134753;27;1031;-49
2022/04/18 00:24:19;;;;;;;;;;;;;;;5.32;67.54;94703.41;5134741;27;1111;-49
2022/04/18 00:26:46;;;;;;;;;;;;;;;5.31;66.85;94699.88;5134916;27;1039;-49
2022/04/18 00:29:12;;;;;;;;;;;;;;;5.28;67.20;94692.22;5134555;27;1001;-49
2022/04/18 00:31:38;;;;;;;;;;;;;;;5.35;66.78;94703.09;5134599;27;1087;-49
2022/04/18 00:34:04;;;;;;;;;;;;;;;5.36;67.13;94694.19;5134220;27;1106;-49
2022/04/18 00:36:30;;;;;;;;;;;;;;;5.36;67.05;94694.19;5134443;27;1035;-49
2022/04/18 00:38:57;;;;;;;;;;;;;;;5.25;67.59;94688.06;5134581;28;2062;-49
2022/04/18 00:41:23;;;;;;;;;;;;;;;5.19;67.22;94701.84;5134784;28;1078;-49
2022/04/18 00:43:49;;;;;;;;;;;;;;;5.34;66.38;94696.13;5134422;27;1205;-48
2022/04/18 00:46:17;;;;;;;;;;;;;;;5.30;67.21;94692.94;5134643;28;980;-49
2022/04/18 00:48:43;;;;;;;;;;;;;;;5.33;66.82;94686.50;5134378;28;1071;-49
2022/04/18 00:51:11;;;;;;;;;;;;;;;5.37;66.76;94693.19;5134382;28;1028;-49
2022/04/18 00:53:37;;;;;;;;;;;;;;;5.40;66.12;94690.25;5134636;28;1004;-49
2022/04/18 00:56:04;;;;;;;;;;;;;;;5.39;66.59;94678.84;5134345;27;1068;-49
2022/04/18 00:58:30;;;;;;;;;;;;;;;5.42;66.15;94690.97;5134136;28;1078;-49
2022/04/18 01:00:56;;;;;;;;;;;;;;;5.43;65.99;94677.56;5134194;28;1979;-49
2022/04/18 01:03:22;;;;;;;;;;;;;;;5.34;66.12;94689.00;5134503;28;1663;-49
2022/04/18 01:05:49;;;;;;;;;;;;;;;5.33;66.60;94683.84;5134424;28;979;-49
2022/04/18 01:08:15;;;;;;;;;;;;;;;5.37;66.08;94664.88;5136096;27;1019;-48
2022/04/18 01:10:43;;;;;;;;;;;;;;;5.39;66.57;94668.22;5138320;27;1067;-48
2022/04/18 01:13:09;;;;;;;;;;;;;;;5.34;66.72;94675.75;5138200;27;995;-49
2022/04/18 01:15:35;;;;;;;;;;;;;;;5.27;66.80;94672.84;5138502;27;952;-48
2022/04/18 01:18:01;;;;;;;;;;;;;;;5.21;66.86;94662.78;5138415;27;1027;-48
2022/04/18 01:20:34;;;;;;;;;;;;;;;5.20;66.93;94665.59;5138064;27;1906;-48
2022/04/18 01:23:00;;;;;;;;;;;;;;;5.27;66.73;94669.34;5138399;27;1040;-49
2022/04/18 01:30:56;;;;;;;;;;;;;;;5.28;66.38;94660.44;5138170;27;1043;-49
2022/04/18 01:33:22;;;;;;;;;;;;;;;5.34;66.13;94659.03;5137913;27;1078;-49
2022/04/18 01:35:48;;;;;;;;;;;;;;;5.34;66.31;94648.41;5137912;27;972;-49
2022/04/18 01:38:14;;;;;;;;;;;;;;;5.25;66.62;94648.31;5137699;27;1067;-49
2022/04/18 01:40:40;;;;;;;;;;;;;;;5.21;66.17;94660.13;5137675;27;1910;-49
2022/04/18 01:43:07;;;;;;;;;;;;;;;5.34;65.68;94643.13;5137609;27;1019;-49
2022/04/18 01:45:33;;;;;;;;;;;;;;;5.43;65.18;94639.63;5137629;27;1076;-49
2022/04/18 01:47:59;;;;;;;;;;;;;;;5.37;66.53;94634.88;5137619;27;1015;-49
2022/04/18 01:50:25;;;;;;;;;;;;;;;5.46;65.55;94626.06;5137596;27;1115;-49
2022/04/18 01:52:51;;;;;;;;;;;;;;;5.45;65.30;94630.53;5137759;27;1055;-49
2022/04/18 01:55:17;;;;;;;;;;;;;;;5.42;65.24;94638.75;5137802;27;1031;-49
2022/04/18 01:57:43;;;;;;;;;;;;;;;5.28;66.36;94629.44;5137337;27;1956;-49
2022/04/18 02:00:09;;;;;;;;;;;;;;;5.34;65.85;94636.00;5137487;27;1997;-49
2022/04/18 02:02:35;;;;;;;;;;;;;;;5.35;65.68;94628.88;5137791;27;980;-49
2022/04/18 02:05:01;;;;;;;;;;;;;;;5.36;65.41;94634.03;5137394;27;1043;-49
2022/04/18 02:07:28;;;;;;;;;;;;;;;5.35;65.10;94637.69;5137545;27;1008;-49
2022/04/18 02:09:55;;;;;;;;;;;;;;;5.35;65.36;94629.72;5137192;27;1038;-49
2022/04/18 02:12:21;;;;;;;;;;;;;;;5.35;65.24;94634.16;5137080;27;1091;-49
2022/04/18 02:14:47;;;;;;;;;;;;;;;5.37;64.55;94640.16;5137287;27;1027;-49
2022/04/18 02:17:13;;;;;;;;;;;;;;;5.40;64.65;94635.41;5137205;27;956;-49
2022/04/18 02:19:39;;;;;;;;;;;;;;;5.38;64.38;94637.38;5136227;27;1986;-49
2022/04/18 02:22:05;;;;;;;;;;;;;;;5.27;65.41;94640.19;5137049;27;971;-49
2022/04/18 02:24:31;;;;;;;;;;;;;;;5.21;65.43;94628.31;5136722;27;1072;-49
2022/04/18 02:26:58;;;;;;;;;;;;;;;5.11;66.28;94627.50;5137037;27;1031;-49
2022/04/18 02:29:24;;;;;;;;;;;;;;;5.14;65.85;94632.53;5137136;27;1031;-49
2022/04/18 02:34:34;;;;;;;;;;;;;;;5.14;65.36;94629.91;5137129;27;952;-49
2022/04/18 02:37:00;;;;;;;;;;;;;;;5.11;65.96;94624.88;5136588;27;1035;-49
2022/04/18 02:39:26;;;;;;;;;;;;;;;5.18;65.42;94625.13;5136522;27;1906;-49
2022/04/18 02:41:52;;;;;;;;;;;;;;;5.28;65.23;94618.84;5136839;27;1062;-49
2022/04/18 02:44:18;;;;;;;;;;;;;;;5.32;64.69;94614.09;5136653;27;1044;-49
2022/04/18 02:46:44;;;;;;;;;;;;;;;5.27;65.20;94611.88;5136511;27;1036;-50
2022/04/18 02:49:10;;;;;;;;;;;;;;;5.32;65.17;94618.56;5136502;27;968;-49
2022/04/18 02:51:36;;;;;;;;;;;;;;;5.32;64.76;94621.22;5136303;27;1048;-49
2022/04/18 02:54:02;;;;;;;;;;;;;;;5.24;65.11;94611.31;5136619;27;1047;-49
2022/04/18 02:56:30;;;;;;;;;;;;;;;5.23;64.89;94610.47;5136535;27;1032;-49
2022/04/18 02:58:56;;;;;;;;;;;;;;;5.25;64.70;94612.97;5136278;27;1917;-49
2022/04/18 03:01:22;;;;;;;;;;;;;;;5.19;64.76;94617.03;5136479;27;949;-49
2022/04/18 03:03:48;;;;;;;;;;;;;;;5.12;65.66;94605.31;5136219;27;1012;-49
2022/04/18 03:06:14;;;;;;;;;;;;;;;5.20;65.44;94609.94;5136016;27;1098;-49
2022/04/18 03:08:40;;;;;;;;;;;;;;;5.32;64.38;94621.22;5136352;27;964;-49
2022/04/18 03:11:07;;;;;;;;;;;;;;;5.29;65.18;94617.03;5136180;27;1028;-49
2022/04/18 03:13:34;;;;;;;;;;;;;;;5.16;65.83;94620.00;5136238;27;1051;-48
2022/04/18 03:16:00;;;;;;;;;;;;;;;5.10;66.14;94620.53;5136164;27;1031;-49
2022/04/18 03:18:26;;;;;;;;;;;;;;;5.18;65.14;94618.03;5136122;27;1044;-48
2022/04/18 03:20:52;;;;;;;;;;;;;;;5.31;64.38;94616.88;5135639;27;2001;-49
2022/04/18 03:23:18;;;;;;;;;;;;;;;5.23;64.34;94605.16;5135947;27;1028;-49
2022/04/18 03:25:44;;;;;;;;;;;;;;;5.16;64.40;94613.81;5135401;27;1241;-49
2022/04/18 03:28:10;;;;;;;;;;;;;;;5.14;64.82;94616.66;5135849;27;971;-49
2022/04/18 03:30:36;;;;;;;;;;;;;;;5.07;65.50;94616.34;5135550;27;960;-49
2022/04/18 03:33:03;;;;;;;;;;;;;;;5.08;64.99;94607.44;5135542;27;1027;-49
2022/04/18 03:35:30;;;;;;;;;;;;;;;5.14;64.89;94610.47;5135416;27;972;-49
2022/04/18 03:40:41;;;;;;;;;;;;;;;5.07;64.31;94610.22;5135402;27;1909;-48
2022/04/18 03:43:07;;;;;;;;;;;;;;;5.07;64.77;94612.88;5135497;27;1063;-49
2022/04/18 03:45:33;;;;;;;;;;;;;;;5.08;65.28;94611.88;5135281;27;1844;-49
2022/04/18 03:47:59;;;;;;;;;;;;;;;5.10;64.89;94620.53;5135167;27;1066;-49
2022/04/18 03:50:25;;;;;;;;;;;;;;;5.11;65.16;94610.78;5134022;27;1814;-49
2022/04/18 03:52:52;;;;;;;;;;;;;;;5.12;65.00;94613.28;5135358;27;1016;-49
2022/04/18 03:55:18;;;;;;;;;;;;;;;5.05;65.13;94613.00;5135103;27;1159;-49
2022/04/18 03:57:44;;;;;;;;;;;;;;;5.08;65.34;94623.34;5135265;27;1062;-49
2022/04/18 04:00:11;;;;;;;;;;;;;;;5.03;65.47;94620.28;5135042;27;1910;-49
2022/04/18 04:02:37;;;;;;;;;;;;;;;5.01;64.56;94610.81;5134989;27;964;-49
2022/04/18 04:05:03;;;;;;;;;;;;;;;5.08;64.41;94628.66;5135245;27;1051;-49
2022/04/18 04:07:29;;;;;;;;;;;;;;;5.06;65.39;94633.22;5134937;27;1015;-50
2022/04/18 04:09:55;;;;;;;;;;;;;;;5.16;64.68;94632.38;5135118;27;1046;-50
2022/04/18 04:12:22;;;;;;;;;;;;;;;5.15;65.15;94628.91;5134938;27;995;-50
2022/04/18 04:14:52;;;;;;;;;;;;;;;5.05;65.57;94631.56;5135127;27;1023;-49
2022/04/18 04:17:18;;;;;;;;;;;;;;;5.06;65.04;94625.28;5134682;27;1047;-49
2022/04/18 04:19:44;;;;;;;;;;;;;;;5.12;64.47;94618.56;5134989;27;1913;-50
2022/04/18 04:22:10;;;;;;;;;;;;;;;5.07;65.19;94631.44;5134703;27;928;-50
2022/04/18 04:24:36;;;;;;;;;;;;;;;5.09;64.74;94624.16;5134621;27;1194;-50
2022/04/18 04:27:03;;;;;;;;;;;;;;;5.14;64.87;94632.53;5134957;27;1024;-49
2022/04/18 04:29:28;;;;;;;;;;;;;;;5.16;65.13;94622.63;5134590;27;1005;-49
2022/04/18 04:31:54;;;;;;;;;;;;;;;5.22;64.78;94624.72;5134490;27;1084;-49
2022/04/18 04:34:20;;;;;;;;;;;;;;;5.32;63.71;94635.31;5134506;27;1000;-50
2022/04/18 04:36:47;;;;;;;;;;;;;;;5.35;63.48;94623.56;5134540;27;1114;-50
2022/04/18 04:39:13;;;;;;;;;;;;;;;5.36;63.52;94633.22;5134444;27;1905;-50
2022/04/18 04:41:39;;;;;;;;;;;;;;;5.44;63.35;94628.03;5134679;28;1059;-50
2022/04/18 04:44:06;;;;;;;;;;;;;;;5.44;63.85;94638.63;5134225;27;1014;-50
2022/04/18 04:46:32;;;;;;;;;;;;;;;5.56;62.54;94634.00;5134381;28;1179;-50
2022/04/18 04:48:59;;;;;;;;;;;;;;;5.55;62.55;94630.50;5134678;28;978;-50
2022/04/18 04:51:25;;;;;;;;;;;;;;;5.51;62.68;94634.44;5134563;28;1042;-49
2022/04/18 04:53:51;;;;;;;;;;;;;;;5.57;62.04;94644.47;5134222;28;1095;-50
2022/04/18 04:56:17;;;;;;;;;;;;;;;5.66;61.84;94637.47;5134445;28;984;-49
2022/04/18 04:58:43;;;;;;;;;;;;;;;5.72;62.53;94644.84;5133192;28;1023;-49
2022/04/18 05:01:09;;;;;;;;;;;;;;;5.79;62.08;94637.16;5134152;28;1918;-49
2022/04/18 05:03:35;;;;;;;;;;;;;;;5.79;62.41;94647.78;5134504;28;1036;-49
2022/04/18 05:06:01;;;;;;;;;;;;;;;5.84;61.61;94645.50;5134223;27;2068;-49
2022/04/18 05:08:27;;;;;;;;;;;;;;;5.87;61.97;94639.91;5134221;28;1071;-49
2022/04/18 05:10:55;;;;;;;;;;;;;;;5.97;61.72;94640.75;5134396;28;1074;-49
2022/04/18 05:13:22;;;;;;;;;;;;;;;6.02;61.57;94643.81;5134468;28;952;-50
2022/04/18 05:15:48;;;;;;;;;;;;;;;6.05;60.38;94647.97;5134124;28;1096;-49
2022/04/18 05:18:14;;;;;;;;;;;;;;;6.08;61.01;94649.53;5134352;28;956;-49
2022/04/18 05:20:40;;;;;;;;;;;;;;;6.13;60.87;94648.09;5134368;28;1909;-50
2022/04/18 05:23:06;;;;;;;;;;;;;;;6.10;61.37;94658.16;5134022;28;1076;-50
2022/04/18 05:25:32;;;;;;;;;;;;;;;6.16;60.86;94654.94;5134310;28;1079;-50
2022/04/18 05:27:58;;;;;;;;;;;;;;;6.12;60.26;94651.72;5134074;28;1971;-49
2022/04/18 05:30:24;;;;;;;;;;;;;;;6.10;60.85;94655.53;5133924;28;1067;-50
2022/04/18 05:32:50;;;;;;;;;;;;;;;6.25;60.46;94665.50;5133869;28;1854;-50
2022/04/18 05:35:16;;;;;;;;;;;;;;;6.36;60.35;94661.81;5133992;28;1825;-50
2022/04/18 05:37:42;;;;;;;;;;;;;;;6.41;60.77;94664.88;5134124;27;1047;-49
2022/04/18 05:40:08;;;;;;;;;;;;;;;6.52;59.48;94670.97;5134084;28;1910;-50
2022/04/18 05:42:35;;;;;;;;;;;;;;;6.45;60.15;94676.88;5134150;28;937;-49
2022/04/18 05:45:01;;;;;;;;;;;;;;;6.54;59.84;94669.81;5133822;28;976;-50
2022/04/18 05:47:27;;;;;;;;;;;;;;;6.64;59.04;94667.97;5134116;28;1048;-49
2022/04/18 05:49:53;;;;;;;;;;;;;;;6.75;59.33;94666.06;5134040;28;983;-49
2022/04/18 05:52:19;;;;;;;;;;;;;;;6.93;59.76;94658.97;5134033;27;1026;-50
2022/04/18 05:54:45;;;;;;;;;;;;;;;7.04;58.80;94655.25;5134537;27;924;-49
2022/04/18 05:57:11;;;;;;;;;;;;;;;7.04;59.35;94648.13;5137557;27;1032;-49
2022/04/18 05:59:37;;;;;;;;;;;;;;;7.13;58.40;94661.47;5137299;27;1910;-49
2022/04/18 06:02:03;;;;;;;;;;;;;;;7.21;58.30;94658.91;5137737;27;957;-49
2022/04/18 06:04:29;;;;;;;;;;;;;;;7.38;58.46;94668.69;5137597;27;1032;-49
2022/04/18 06:06:55;;;;;;;;;;;;;;;7.61;56.73;94669.03;5137259;27;999;-49
2022/04/18 06:09:21;;;;;;;;;;;;;;;7.80;56.55;94664.53;5137237;27;1074;-49
2022/04/18 06:11:47;;;;;;;;;;;;;;;7.85;56.81;94664.88;5137279;27;961;-49
2022/04/18 06:14:13;;;;;;;;;;;;;;;8.20;57.52;94668.44;5137377;27;999;-49
2022/04/18 06:16:39;;;;;;;;;;;;;;;8.32;55.50;94666.31;5137084;27;1008;-49
2022/04/18 06:19:05;;;;;;;;;;;;;;;8.06;55.94;94655.69;5137243;27;1909;-49
2022/04/18 06:21:31;;;;;;;;;;;;;;;7.98;56.63;94665.28;5137199;27;1644;-49
2022/04/18 06:23:57;;;;;;;;;;;;;;;8.20;55.80;94673.75;5136893;27;1078;-49
2022/04/18 06:26:23;;;;;;;;;;;;;;;8.16;56.54;94662.56;5136750;27;1256;-49
2022/04/18 06:28:49;;;;;;;;;;;;;;;8.04;55.89;94674.47;5136762;27;1028;-49
2022/04/18 06:31:15;;;;;;;;;;;;;;;7.98;55.75;94670.59;5137120;27;1023;-49
2022/04/18 06:33:41;;;;;;;;;;;;;;;8.12;55.51;94671.03;5136931;27;1160;-49
2022/04/18 06:36:07;;;;;;;;;;;;;;;8.22;55.26;94677.09;5137013;27;1067;-48
2022/04/18 06:38:33;;;;;;;;;;;;;;;8.20;55.15;94677.25;5136693;27;1031;-49
2022/04/18 06:40:59;;;;;;;;;;;;;;;8.33;55.16;94674.16;5136628;27;1983;-49
2022/04/18 06:43:25;;;;;;;;;;;;;;;8.65;54.49;94685.13;5136894;27;1193;-49
2022/04/18 06:45:51;;;;;;;;;;;;;;;8.82;53.86;94680.69;5136463;27;1067;-49
2022/04/18 06:48:17;;;;;;;;;;;;;;;8.87;53.63;94681.88;5136467;27;1027;-49
2022/04/18 06:50:45;;;;;;;;;;;;;;;8.82;52.74;94681.56;5136563;27;991;-49
2022/04/18 06:53:11;;;;;;;;;;;;;;;9.02;53.82;94676.75;5136433;27;1011;-49
2022/04/18 06:58:23;;;;;;;;;;;;;;;9.59;52.55;94676.00;5136272;27;1010;-49
2022/04/18 07:00:49;;;;;;;;;;;;;;;9.83;52.00;94683.16;5136127;27;1914;-49
2022/04/18 07:03:15;;;;;;;;;;;;;;;9.88;50.54;94683.47;5136336;27;963;-49
2022/04/18 07:05:41;;;;;;;;;;;;;;;9.92;50.87;94679.50;5135962;27;1007;-49
2022/04/18 07:08:08;;;;;;;;;;;;;;;9.90;50.17;94677.97;5136302;27;1111;-49
2022/04/18 07:10:34;;;;;;;;;;;;;;;9.74;50.83;94676.16;5136102;27;1011;-49
2022/04/18 07:13:00;;;;;;;;;;;;;;;9.91;51.60;94672.47;5135937;27;980;-49
2022/04/18 07:15:26;;;;;;;;;;;;;;;10.39;49.46;94677.91;5136193;27;948;-49
2022/04/18 07:17:52;;;;;;;;;;;;;;;10.23;50.22;94684.13;5135910;27;1043;-49
2022/04/18 07:20:18;;;;;;;;;;;;;;;10.18;50.90;94681.09;5135770;27;1901;-49
2022/04/18 07:22:44;;;;;;;;;;;;;;;10.10;50.04;94686.47;5135987;27;969;-49
2022/04/18 07:25:10;;;;;;;;;;;;;;;10.09;50.26;94682.97;5135704;27;1340;-49
2022/04/18 07:27:36;;;;;;;;;;;;;;;9.96;49.47;94688.84;5135896;27;1023;-49
2022/04/18 07:30:03;;;;;;;;;;;;;;;9.84;51.57;94689.34;5135899;27;945;-49
2022/04/18 07:32:29;;;;;;;;;;;;;;;10.09;50.80;94693.66;5135910;27;996;-49
2022/04/18 07:35:00;;;;;;;;;;;;;;;9.95;49.93;94691.66;5135716;27;961;-49
2022/04/18 07:37:26;;;;;;;;;;;;;;;10.49;48.15;94696.44;5135531;27;1027;-49
2022/04/18 07:39:52;;;;;;;;;;;;;;;10.96;48.31;94692.91;5135371;27;1995;-49
2022/04/18 07:42:19;;;;;;;;;;;;;;;11.04;48.79;94695.56;5135313;27;983;-49
2022/04/18 07:44:45;;;;;;;;;;;;;;;10.86;48.90;94703.00;5135671;27;1034;-49
2022/04/18 07:47:11;;;;;;;;;;;;;;;10.59;48.40;94698.94;5135315;27;1078;-49
2022/04/18 07:49:37;;;;;;;;;;;;;;;10.80;47.77;94704.53;5135719;27;1015;-49
2022/04/18 07:52:04;;;;;;;;;;;;;;;11.00;48.33;94702.25;5135245;27;1002;-49
2022/04/18 07:54:30;;;;;;;;;;;;;;;10.89;50.52;94705.31;5135190;27;1003;-49
2022/04/18 07:56:56;;;;;;;;;;;;;;;10.90;48.83;94701.63;5135410;27;949;-49
2022/04/18 07:59:22;;;;;;;;;;;;;;;10.55;49.27;94706.44;5135267;27;1937;-49
2022/04/18 08:01:48;;;;;;;;;;;;;;;10.05;49.95;94711.00;5135306;27;944;-49
2022/04/18 08:04:14;;;;;;;;;;;;;;;9.47;50.91;94704.84;5135196;27;1036;-49
2022/04/18 08:06:40;;;;;;;;;;;;;;;9.09;52.59;94696.44;5134858;27;1016;-49
2022/04/18 08:09:06;;;;;;;;;;;;;;;9.06;52.85;94698.59;5134998;27;964;-48
2022/04/18 08:11:32;;;;;;;;;;;;;;;9.03;53.53;94693.59;5134835;27;1185;-49
2022/04/18 08:13:58;;;;;;;;;;;;;;;8.95;53.74;94699.72;5135171;27;963;-49
2022/04/18 08:16:24;;;;;;;;;;;;;;;8.90;52.82;94694.06;5135086;27;992;-49
2022/04/18 08:18:51;;;;;;;;;;;;;;;9.04;54.36;94698.75;5134291;27;1094;-49
2022/04/18 08:21:17;;;;;;;;;;;;;;;9.22;54.83;94698.66;5134808;27;1973;-49
2022/04/18 08:23:44;;;;;;;;;;;;;;;9.59;53.23;94697.34;5134638;27;968;-49
2022/04/18 08:26:10;;;;;;;;;;;;;;;10.01;50.75;94685.66;5134511;27;1842;-49
2022/04/18 08:28:37;;;;;;;;;;;;;;;10.10;50.75;94687.31;5134883;27;960;-49
2022/04/18 08:31:03;;;;;;;;;;;;;;;10.51;50.21;94691.75;5134800;27;1007;-49
2022/04/18 08:33:30;;;;;;;;;;;;;;;10.90;49.36;94678.38;5134885;27;1031;-49
2022/04/18 08:35:57;;;;;;;;;;;;;;;10.88;49.63;94677.72;5134509;27;1844;-49
2022/04/18 08:38:23;;;;;;;;;;;;;;;10.72;51.03;94684.00;5134453;27;1040;-49
2022/04/18 08:40:49;;;;;;;;;;;;;;;10.55;51.05;94682.41;5134379;27;1913;-49
2022/04/18 08:43:16;;;;;;;;;;;;;;;10.12;49.60;94671.94;5134725;28;1010;-49
2022/04/18 08:45:42;;;;;;;;;;;;;;;9.94;50.99;94677.50;5134382;28;921;-49
2022/04/18 08:53:38;;;;;;;;;;;;;;;9.58;51.94;94687.69;5134490;27;1016;-49
2022/04/18 08:56:04;;;;;;;;;;;;;;;9.43;53.01;94681.31;5134384;28;1090;-48
2022/04/18 08:58:31;;;;;;;;;;;;;;;9.29;52.35;94678.28;5134595;28;1015;-49
2022/04/18 09:00:59;;;;;;;;;;;;;;;9.27;52.68;94682.13;5134324;28;1991;-49
2022/04/18 09:03:25;;;;;;;;;;;;;;;9.28;52.62;94678.50;5134279;28;1079;-49
2022/04/18 09:06:08;;;;;;;;;;;;;;;9.30;51.78;94676.47;5134227;27;1028;-49
2022/04/18 09:08:41;;;;;;;;;;;;;;;9.37;51.37;94681.00;5134271;28;1075;-48
2022/04/18 09:11:07;;;;;;;;;;;;;;;9.41;52.16;94677.97;5134269;28;1857;-48
2022/04/18 09:13:33;;;;;;;;;;;;;;;9.47;51.03;94680.84;5134487;27;1084;-48
2022/04/18 09:15:59;;;;;;;;;;;;;;;9.60;49.90;94675.00;5134445;28;1024;-48
2022/04/18 09:18:26;;;;;;;;;;;;;;;9.66;49.91;94674.34;5134047;28;1174;-49
2022/04/18 09:20:54;;;;;;;;;;;;;;;9.78;50.12;94664.97;5134206;28;1902;-49
2022/04/18 09:23:22;;;;;;;;;;;;;;;9.92;50.19;94665.28;5134103;28;1012;-48
2022/04/18 09:25:52;;;;;;;;;;;;;;;9.94;49.09;94672.16;5133984;28;1080;-48
2022/04/18 09:28:21;;;;;;;;;;;;;;;9.97;49.08;94670.97;5134145;27;1071;-48
2022/04/18 09:30:55;;;;;;;;;;;;;;;9.84;49.11;94667.97;5137934;27;1024;-48
2022/04/18 09:33:21;;;;;;;;;;;;;;;9.60;49.66;94661.66;5138188;27;1418;-48
2022/04/18 09:35:47;;;;;;;;;;;;;;;9.69;49.84;94673.16;5138155;27;964;-48
2022/04/18 09:38:16;;;;;;;;;;;;;;;9.73;49.70;94672.66;5138172;27;1019;-48
2022/04/18 09:40:43;;;;;;;;;;;;;;;9.70;49.56;94669.50;5137831;27;1905;-49
2022/04/18 09:43:09;;;;;;;;;;;;;;;9.49;48.87;94670.81;5137848;27;952;-49
2022/04/18 09:45:37;;;;;;;;;;;;;;;9.48;50.17;94669.13;5137673;27;1036;-48
2022/04/18 09:48:03;;;;;;;;;;;;;;;9.72;49.27;94670.97;5137988;27;1038;-49
2022/04/18 09:53:20;;;;;;;;;;;;;;;9.92;49.23;94668.81;5137939;27;1043;-48
2022/04/18 09:55:47;;;;;;;;;;;;;;;9.74;49.77;94666.31;5137580;27;1012;-49
2022/04/18 09:58:13;;;;;;;;;;;;;;;9.62;50.27;94678.34;5137773;27;1043;-49
2022/04/18 10:00:39;;;;;;;;;;;;;;;9.71;50.02;94677.34;5137583;27;1906;-49
2022/04/18 10:03:06;;;;;;;;;;;;;;;10.04;49.56;94671.97;5137678;27;1099;-48
2022/04/18 10:05:33;;;;;;;;;;;;;;;10.38;48.98;94670.06;5137582;27;1019;-49
2022/04/18 10:08:03;;;;;;;;;;;;;;;10.48;48.42;94670.72;5137430;27;975;-49
2022/04/18 10:10:36;;;;;;;;;;;;;;;10.55;47.21;94677.88;5137228;27;1968;-49
2022/04/18 10:13:03;;;;;;;;;;;;;;;10.40;47.41;94668.09;5137461;27;1027;-49
2022/04/18 10:15:29;;;;;;;;;;;;;;;10.62;48.33;94667.31;5137356;27;1026;-48
2022/04/18 10:17:56;;;;;;;;;;;;;;;10.90;48.63;94661.50;5137414;27;964;-49
2022/04/18 10:20:40;;;;;;;;;;;;;;;10.96;49.10;94668.00;5136987;27;1980;-48
2022/04/18 10:23:15;;;;;;;;;;;;;;;10.86;48.68;94676.25;5136984;27;1047;-49
2022/04/18 10:26:00;;;;;;;;;;;;;;;10.40;48.03;94660.06;5136936;27;1128;-49
2022/04/18 10:28:31;;;;;;;;;;;;;;;10.24;48.42;94664.38;5137133;27;976;-49
2022/04/18 10:30:59;;;;;;;;;;;;;;;10.21;49.62;94662.06;5136989;27;1050;-49
2022/04/18 10:33:26;;;;;;;;;;;;;;;10.13;49.16;94662.06;5136801;27;1044;-49
2022/04/18 10:35:53;;;;;;;;;;;;;;;9.90;49.81;94668.16;5136980;27;1046;-48
2022/04/18 10:38:30;;;;;;;;;;;;;;;9.74;49.97;94660.16;5137022;27;1047;-49
2022/04/18 10:43:53;;;;;;;;;;;;;;;9.49;52.80;94662.81;5136671;27;1024;-48
2022/04/18 10:46:20;;;;;;;;;;;;;;;9.37;52.71;94672.13;5136521;27;1012;-49
2022/04/18 10:48:53;;;;;;;;;;;;;;;9.33;52.80;94658.31;5136857;27;980;-48
2022/04/18 10:51:27;;;;;;;;;;;;;;;9.23;52.29;94662.13;5136414;27;1048;-48
2022/04/18 10:54:04;;;;;;;;;;;;;;;9.36;52.64;94668.63;5136729;27;1019;-48
2022/04/18 10:56:45;;;;;;;;;;;;;;;9.50;51.46;94658.31;5136902;27;1065;-49
2022/04/18 10:59:12;;;;;;;;;;;;;;;9.56;51.71;94665.63;5136243;27;1914;-48
2022/04/18 11:01:39;;;;;;;;;;;;;;;9.70;51.85;94662.31;5136248;27;1024;-48
2022/04/18 11:04:08;;;;;;;;;;;;;;;9.93;50.20;94651.78;5136169;27;1064;-49
2022/04/18 11:06:37;;;;;;;;;;;;;;;10.20;50.34;94659.56;5136338;27;1019;-48
2022/04/18 11:09:06;;;;;;;;;;;;;;;10.37;49.45;94650.53;5136082;27;1008;-49
2022/04/18 11:11:36;;;;;;;;;;;;;;;10.71;48.90;94657.44;5136346;27;996;-49
2022/04/18 11:14:12;;;;;;;;;;;;;;;11.01;47.61;94646.91;5136200;27;945;-49
2022/04/18 11:16:41;;;;;;;;;;;;;;;10.91;48.04;94660.53;5135989;27;996;-49
2022/04/18 11:19:09;;;;;;;;;;;;;;;10.74;47.36;94660.59;5136347;27;1990;-49
2022/04/18 11:21:59;;;;;;;;;;;;;;;10.61;48.38;94648.78;5135663;27;1056;-49
2022/04/18 11:24:37;;;;;;;;;;;;;;;10.86;46.84;94649.50;5130261;27;1258;-49
2022/04/18 11:27:09;;;;;;;;;;;;;;;10.88;48.71;94639.47;5135898;27;1098;-49
2022/04/18 11:29:36;;;;;;;;;;;;;;;10.89;48.47;94641.13;5135824;27;995;-49
2022/04/18 11:32:02;;;;;;;;;;;;;;;10.93;47.56;94647.81;5135568;27;1098;-49
2022/04/18 11:34:30;;;;;;;;;;;;;;;10.91;46.13;94639.13;5135840;27;975;-49
2022/04/18 11:36:56;;;;;;;;;;;;;;;10.87;46.85;94640.47;5135568;27;1086;-49
2022/04/18 11:39:23;;;;;;;;;;;;;;;10.79;47.19;94643.19;5135337;27;1992;-48
2022/04/18 11:41:49;;;;;;;;;;;;;;;10.46;47.70;94643.34;5135512;27;1151;-49
2022/04/18 11:44:21;;;;;;;;;;;;;;;10.39;47.86;94637.00;5135636;27;1213;-48
2022/04/18 11:46:47;;;;;;;;;;;;;;;10.43;47.66;94632.97;5135330;27;1019;-48
2022/04/18 11:49:13;;;;;;;;;;;;;;;10.52;48.53;94635.44;5135488;27;1075;-49
2022/04/18 11:51:40;;;;;;;;;;;;;;;10.73;48.28;94634.03;5135418;27;957;-48
2022/04/18 11:54:06;;;;;;;;;;;;;;;10.74;47.25;94628.50;5135144;27;1012;-48
2022/04/18 11:56:32;;;;;;;;;;;;;;;10.80;46.78;94632.31;5135431;27;1023;-48
2022/04/18 11:59:04;;;;;;;;;;;;;;;10.73;47.42;94626.00;5135170;27;948;-49
2022/04/18 12:07:02;;;;;;;;;;;;;;;10.94;47.67;94609.34;5134992;27;1028;-48
2022/04/18 12:09:30;;;;;;;;;;;;;;;10.89;47.08;94614.41;5134999;27;983;-48
2022/04/18 12:11:58;;;;;;;;;;;;;;;10.94;46.17;94609.34;5134906;27;1031;-48
2022/04/18 12:14:28;;;;;;;;;;;;;;;10.95;45.92;94608.34;5135141;27;1031;-49
2022/04/18 12:16:55;;;;;;;;;;;;;;;10.83;46.01;94599.88;5135195;27;1011;-49
2022/04/18 12:19:21;;;;;;;;;;;;;;;10.60;46.25;94610.50;5133599;27;1917;-49
2022/04/18 12:21:51;;;;;;;;;;;;;;;10.34;46.83;94608.16;5135063;27;1027;-49
2022/04/18 12:27:59;;;;;;;;;;;;;;;10.04;46.90;94607.03;4603319;27;2011;-49
2022/04/18 12:30:26;;;;;;;;;;;;;;;10.14;48.38;94594.31;5134699;27;1044;-49
2022/04/18 12:32:54;;;;;;;;;;;;;;;10.32;47.00;94608.31;5134517;27;1095;-49
2022/04/18 12:35:38;;;;;;;;;;;;;;;10.27;46.53;94589.25;5134474;27;1040;-49
2022/04/18 12:38:05;;;;;;;;;;;;;;;10.43;46.63;94585.69;5134702;27;960;-48
2022/04/18 12:40:35;;;;;;;;;;;;;;;10.48;46.50;94598.56;5134847;27;1902;-49
2022/04/18 12:43:06;;;;;;;;;;;;;;;10.39;46.60;94592.41;5134748;28;1008;-48
2022/04/18 12:45:51;;;;;;;;;;;;;;;10.35;47.15;94591.09;5134438;28;1075;-50
2022/04/18 12:48:21;;;;;;;;;;;;;;;10.04;47.13;94593.69;5134639;28;973;-49
2022/04/18 12:50:48;;;;;;;;;;;;;;;9.82;48.74;94596.06;5134446;28;979;-49
2022/04/18 12:53:14;;;;;;;;;;;;;;;9.80;49.48;94586.56;5134497;28;1015;-49
2022/04/18 12:55:40;;;;;;;;;;;;;;;9.68;48.50;94583.41;5134358;27;1019;-49
2022/04/18 12:58:26;;;;;;;;;;;;;;;9.69;48.87;94585.06;5134610;28;968;-49
2022/04/18 13:00:52;;;;;;;;;;;;;;;9.70;48.83;94584.06;5133973;28;1918;-49
2022/04/18 13:03:20;;;;;;;;;;;;;;;9.69;49.12;94577.06;5134759;27;1035;-49
2022/04/18 13:05:47;;;;;;;;;;;;;;;9.62;49.03;94582.25;5138743;27;1075;-48
2022/04/18 13:08:14;;;;;;;;;;;;;;;9.52;49.41;94578.91;5138696;27;1038;-49
2022/04/18 13:10:40;;;;;;;;;;;;;;;9.53;49.40;94575.25;5138688;27;1015;-49
2022/04/18 13:13:10;;;;;;;;;;;;;;;9.46;50.03;94577.75;5138583;27;980;-49
2022/04/18 13:15:38;;;;;;;;;;;;;;;9.53;48.99;94580.59;5138370;27;1079;-48
2022/04/18 13:18:12;;;;;;;;;;;;;;;9.68;48.90;94581.56;5138590;27;995;-48
2022/04/18 13:20:39;;;;;;;;;;;;;;;9.69;49.63;94577.88;5138102;27;1906;-53
2022/04/18 13:23:06;;;;;;;;;;;;;;;9.60;49.36;94572.72;5138210;27;1007;-48
2022/04/18 13:25:32;;;;;;;;;;;;;;;9.55;49.17;94576.75;5138371;27;1024;-48
2022/04/18 13:27:58;;;;;;;;;;;;;;;9.60;49.96;94576.25;5137968;27;1673;-48
2022/04/18 13:30:26;;;;;;;;;;;;;;;9.56;48.48;94590.91;5138127;27;1983;-49
2022/04/18 13:32:52;;;;;;;;;;;;;;;9.58;48.61;94587.09;5137985;27;1951;-48
2022/04/18 13:35:19;;;;;;;;;;;;;;;9.65;49.11;94581.91;5137730;27;1089;-48
2022/04/18 13:37:46;;;;;;;;;;;;;;;9.70;49.20;94581.41;5138203;27;959;-48
2022/04/18 13:40:13;;;;;;;;;;;;;;;9.75;48.47;94582.56;5138043;27;1910;-48
2022/04/18 13:42:39;;;;;;;;;;;;;;;9.75;49.36;94585.22;5137968;27;1010;-48